Abbyville, Kansas
Current Conditions -  °F | °C
As of 7:52 AM on Saturday 01 Nov 2014 (Local Time) from KHUT Reporting Station
Clear Clear  
Wind Chill: 19°   Ceiling: Unl
Heat Index: 29°   Visibility: 10mi
Dew Point: 19°   Wind: 12mph
Humidity: 67%   Direction: 150°SSE
Pressure: 30.37"   Gusts: NA
Location:  37.97°N, 98.2°W
Report Text: KHUT 011252Z 15010KT 10SM CLR M02/M07 A3037 RMK AO2 SLP294 T10171072
Loading
Personal Weather Stations






























Interactive Weather Map
Tropical Storm Tracking
New forecast layout! Learn more

10-Day Weather Forecast

Advertisements
Track Severe Weather on mobile